sensor_id;sensor_type;location;lat;lon;timestamp;P1;durP1;ratioP1;P2;durP2;ratioP2
38901;SDS011;24661;53.566;9.910;2023-08-01T00:00:11;14.60;;;8.50;;
38901;SDS011;24661;53.566;9.910;2023-08-01T00:02:37;16.23;;;8.53;;
38901;SDS011;24661;53.566;9.910;2023-08-01T00:05:04;17.20;;;8.40;;
38901;SDS011;24661;53.566;9.910;2023-08-01T00:07:30;8.00;;;5.33;;
38901;SDS011;24661;53.566;9.910;2023-08-01T00:09:55;8.97;;;6.10;;
38901;SDS011;24661;53.566;9.910;2023-08-01T00:12:21;9.17;;;4.73;;
38901;SDS011;24661;53.566;9.910;2023-08-01T00:14:49;5.77;;;4.00;;
38901;SDS011;24661;53.566;9.910;2023-08-01T00:17:15;7.57;;;4.57;;
38901;SDS011;24661;53.566;9.910;2023-08-01T00:19:41;5.47;;;4.10;;
38901;SDS011;24661;53.566;9.910;2023-08-01T00:22:06;8.97;;;4.80;;
38901;SDS011;24661;53.566;9.910;2023-08-01T00:24:32;10.40;;;5.03;;
38901;SDS011;24661;53.566;9.910;2023-08-01T00:26:57;6.67;;;4.80;;
38901;SDS011;24661;53.566;9.910;2023-08-01T00:29:23;5.57;;;3.87;;
38901;SDS011;24661;53.566;9.910;2023-08-01T00:31:48;5.50;;;3.77;;
38901;SDS011;24661;53.566;9.910;2023-08-01T00:34:14;5.87;;;4.07;;
38901;SDS011;24661;53.566;9.910;2023-08-01T00:36:39;8.83;;;4.87;;
38901;SDS011;24661;53.566;9.910;2023-08-01T00:39:05;8.00;;;4.27;;
38901;SDS011;24661;53.566;9.910;2023-08-01T00:41:31;7.40;;;4.00;;
38901;SDS011;24661;53.566;9.910;2023-08-01T00:43:56;8.43;;;4.73;;
38901;SDS011;24661;53.566;9.910;2023-08-01T00:46:22;8.60;;;4.33;;
38901;SDS011;24661;53.566;9.910;2023-08-01T00:48:49;7.07;;;3.53;;
38901;SDS011;24661;53.566;9.910;2023-08-01T00:51:15;8.07;;;4.50;;
38901;SDS011;24661;53.566;9.910;2023-08-01T00:53:43;7.50;;;4.60;;
38901;SDS011;24661;53.566;9.910;2023-08-01T00:56:10;8.57;;;4.77;;
38901;SDS011;24661;53.566;9.910;2023-08-01T00:58:36;7.50;;;4.37;;
38901;SDS011;24661;53.566;9.910;2023-08-01T01:01:01;5.67;;;4.37;;
38901;SDS011;24661;53.566;9.910;2023-08-01T01:03:28;9.90;;;5.07;;
38901;SDS011;24661;53.566;9.910;2023-08-01T01:08:27;11.60;;;5.07;;
38901;SDS011;24661;53.566;9.910;2023-08-01T01:10:53;10.17;;;4.77;;
38901;SDS011;24661;53.566;9.910;2023-08-01T01:13:18;10.03;;;5.53;;
38901;SDS011;24661;53.566;9.910;2023-08-01T01:15:44;9.43;;;5.43;;
38901;SDS011;24661;53.566;9.910;2023-08-01T01:18:09;14.23;;;6.80;;
38901;SDS011;24661;53.566;9.910;2023-08-01T01:20:35;13.10;;;6.67;;
38901;SDS011;24661;53.566;9.910;2023-08-01T01:23:01;16.23;;;7.50;;
38901;SDS011;24661;53.566;9.910;2023-08-01T01:25:29;10.10;;;6.80;;
38901;SDS011;24661;53.566;9.910;2023-08-01T01:27:56;14.30;;;6.83;;
38901;SDS011;24661;53.566;9.910;2023-08-01T01:30:23;20.77;;;8.67;;
38901;SDS011;24661;53.566;9.910;2023-08-01T01:32:49;14.37;;;7.07;;
38901;SDS011;24661;53.566;9.910;2023-08-01T01:35:15;14.77;;;7.50;;
38901;SDS011;24661;53.566;9.910;2023-08-01T01:37:41;12.90;;;7.83;;
38901;SDS011;24661;53.566;9.910;2023-08-01T01:40:06;18.07;;;8.27;;
38901;SDS011;24661;53.566;9.910;2023-08-01T01:42:32;17.03;;;8.07;;
38901;SDS011;24661;53.566;9.910;2023-08-01T01:44:58;15.20;;;7.13;;
38901;SDS011;24661;53.566;9.910;2023-08-01T01:47:23;17.47;;;8.40;;
38901;SDS011;24661;53.566;9.910;2023-08-01T01:49:49;18.00;;;8.20;;
38901;SDS011;24661;53.566;9.910;2023-08-01T01:52:14;15.87;;;7.77;;
38901;SDS011;24661;53.566;9.910;2023-08-01T01:54:40;13.93;;;8.10;;
38901;SDS011;24661;53.566;9.910;2023-08-01T01:57:06;22.20;;;9.60;;
38901;SDS011;24661;53.566;9.910;2023-08-01T01:59:31;27.70;;;10.40;;
38901;SDS011;24661;53.566;9.910;2023-08-01T02:01:57;18.10;;;9.07;;
38901;SDS011;24661;53.566;9.910;2023-08-01T02:04:22;23.47;;;10.27;;
38901;SDS011;24661;53.566;9.910;2023-08-01T02:06:48;25.73;;;10.17;;
38901;SDS011;24661;53.566;9.910;2023-08-01T02:09:13;25.87;;;10.03;;
38901;SDS011;24661;53.566;9.910;2023-08-01T02:11:39;35.57;;;11.73;;
38901;SDS011;24661;53.566;9.910;2023-08-01T02:14:04;23.63;;;10.43;;
38901;SDS011;24661;53.566;9.910;2023-08-01T02:16:30;23.37;;;9.67;;
38901;SDS011;24661;53.566;9.910;2023-08-01T02:18:55;23.50;;;10.40;;
38901;SDS011;24661;53.566;9.910;2023-08-01T02:21:21;22.70;;;10.83;;
38901;SDS011;24661;53.566;9.910;2023-08-01T02:23:47;28.40;;;11.83;;
38901;SDS011;24661;53.566;9.910;2023-08-01T02:26:12;25.67;;;11.03;;
38901;SDS011;24661;53.566;9.910;2023-08-01T02:28:38;19.97;;;10.00;;
38901;SDS011;24661;53.566;9.910;2023-08-01T02:31:03;17.23;;;10.30;;
38901;SDS011;24661;53.566;9.910;2023-08-01T02:33:29;26.07;;;12.03;;
38901;SDS011;24661;53.566;9.910;2023-08-01T02:35:54;35.13;;;13.60;;
38901;SDS011;24661;53.566;9.910;2023-08-01T02:38:20;36.73;;;13.67;;
38901;SDS011;24661;53.566;9.910;2023-08-01T02:40:45;31.57;;;12.67;;
38901;SDS011;24661;53.566;9.910;2023-08-01T02:43:11;25.43;;;12.40;;
38901;SDS011;24661;53.566;9.910;2023-08-01T02:45:37;25.97;;;14.00;;
38901;SDS011;24661;53.566;9.910;2023-08-01T02:48:02;22.03;;;12.80;;
38901;SDS011;24661;53.566;9.910;2023-08-01T02:50:28;35.73;;;14.40;;
38901;SDS011;24661;53.566;9.910;2023-08-01T02:52:53;33.17;;;14.87;;
38901;SDS011;24661;53.566;9.910;2023-08-01T02:55:19;27.60;;;14.60;;
38901;SDS011;24661;53.566;9.910;2023-08-01T02:57:44;30.57;;;14.77;;
38901;SDS011;24661;53.566;9.910;2023-08-01T03:00:10;38.03;;;15.93;;
38901;SDS011;24661;53.566;9.910;2023-08-01T03:02:38;37.87;;;17.30;;
38901;SDS011;24661;53.566;9.910;2023-08-01T03:05:05;39.77;;;17.33;;
38901;SDS011;24661;53.566;9.910;2023-08-01T03:07:32;31.53;;;14.57;;
38901;SDS011;24661;53.566;9.910;2023-08-01T03:09:58;37.70;;;17.00;;
38901;SDS011;24661;53.566;9.910;2023-08-01T03:12:24;37.73;;;15.23;;
38901;SDS011;24661;53.566;9.910;2023-08-01T03:14:49;37.30;;;16.03;;
38901;SDS011;24661;53.566;9.910;2023-08-01T03:17:15;35.23;;;17.53;;
38901;SDS011;24661;53.566;9.910;2023-08-01T03:19:41;34.57;;;17.10;;
38901;SDS011;24661;53.566;9.910;2023-08-01T03:22:07;43.97;;;18.07;;
38901;SDS011;24661;53.566;9.910;2023-08-01T03:24:34;33.97;;;15.93;;
38901;SDS011;24661;53.566;9.910;2023-08-01T03:27:00;37.60;;;16.03;;
38901;SDS011;24661;53.566;9.910;2023-08-01T03:29:26;38.57;;;17.80;;
38901;SDS011;24661;53.566;9.910;2023-08-01T03:31:52;35.40;;;16.03;;
38901;SDS011;24661;53.566;9.910;2023-08-01T03:34:18;37.97;;;17.37;;
38901;SDS011;24661;53.566;9.910;2023-08-01T03:36:43;34.00;;;17.27;;
38901;SDS011;24661;53.566;9.910;2023-08-01T03:39:09;33.83;;;17.00;;
38901;SDS011;24661;53.566;9.910;2023-08-01T03:41:35;38.77;;;18.30;;
38901;SDS011;24661;53.566;9.910;2023-08-01T03:44:00;38.53;;;17.63;;
38901;SDS011;24661;53.566;9.910;2023-08-01T03:46:26;33.13;;;16.37;;
38901;SDS011;24661;53.566;9.910;2023-08-01T03:48:52;32.83;;;16.40;;
38901;SDS011;24661;53.566;9.910;2023-08-01T03:51:17;32.17;;;15.47;;
38901;SDS011;24661;53.566;9.910;2023-08-01T03:53:44;34.57;;;16.67;;
38901;SDS011;24661;53.566;9.910;2023-08-01T03:56:10;35.27;;;15.93;;
38901;SDS011;24661;53.566;9.910;2023-08-01T03:58:36;39.90;;;16.97;;
38901;SDS011;24661;53.566;9.910;2023-08-01T04:01:01;40.13;;;16.77;;
38901;SDS011;24661;53.566;9.910;2023-08-01T04:03:27;31.53;;;16.23;;
38901;SDS011;24661;53.566;9.910;2023-08-01T04:05:53;35.47;;;16.03;;
38901;SDS011;24661;53.566;9.910;2023-08-01T04:08:19;33.20;;;15.73;;
38901;SDS011;24661;53.566;9.910;2023-08-01T04:10:44;30.20;;;15.97;;
38901;SDS011;24661;53.566;9.910;2023-08-01T04:13:10;37.27;;;16.23;;
38901;SDS011;24661;53.566;9.910;2023-08-01T04:15:35;35.73;;;16.70;;
38901;SDS011;24661;53.566;9.910;2023-08-01T04:18:02;31.33;;;16.40;;
38901;SDS011;24661;53.566;9.910;2023-08-01T04:20:28;27.07;;;13.83;;
38901;SDS011;24661;53.566;9.910;2023-08-01T04:22:53;34.00;;;16.27;;
38901;SDS011;24661;53.566;9.910;2023-08-01T04:25:19;34.13;;;15.27;;
38901;SDS011;24661;53.566;9.910;2023-08-01T04:27:45;36.17;;;16.10;;
38901;SDS011;24661;53.566;9.910;2023-08-01T04:30:10;32.03;;;15.77;;
38901;SDS011;24661;53.566;9.910;2023-08-01T04:32:36;40.07;;;16.83;;
38901;SDS011;24661;53.566;9.910;2023-08-01T04:35:01;34.03;;;15.87;;
38901;SDS011;24661;53.566;9.910;2023-08-01T04:37:27;31.23;;;15.10;;
38901;SDS011;24661;53.566;9.910;2023-08-01T04:39:53;34.30;;;16.20;;
38901;SDS011;24661;53.566;9.910;2023-08-01T04:42:18;34.37;;;15.43;;
38901;SDS011;24661;53.566;9.910;2023-08-01T04:44:44;30.33;;;15.80;;
38901;SDS011;24661;53.566;9.910;2023-08-01T04:47:10;36.67;;;16.93;;
38901;SDS011;24661;53.566;9.910;2023-08-01T04:49:35;40.60;;;16.73;;
38901;SDS011;24661;53.566;9.910;2023-08-01T04:52:01;28.83;;;15.90;;
38901;SDS011;24661;53.566;9.910;2023-08-01T04:54:27;25.07;;;14.37;;
38901;SDS011;24661;53.566;9.910;2023-08-01T04:56:52;34.23;;;16.33;;
38901;SDS011;24661;53.566;9.910;2023-08-01T04:59:18;36.10;;;17.30;;
38901;SDS011;24661;53.566;9.910;2023-08-01T05:01:43;35.03;;;15.47;;
38901;SDS011;24661;53.566;9.910;2023-08-01T05:04:09;32.90;;;17.10;;
38901;SDS011;24661;53.566;9.910;2023-08-01T05:06:34;41.50;;;16.23;;
38901;SDS011;24661;53.566;9.910;2023-08-01T05:09:00;33.13;;;16.03;;
38901;SDS011;24661;53.566;9.910;2023-08-01T05:11:26;28.90;;;16.17;;
38901;SDS011;24661;53.566;9.910;2023-08-01T05:13:52;29.87;;;15.43;;
38901;SDS011;24661;53.566;9.910;2023-08-01T05:16:17;42.03;;;17.13;;
38901;SDS011;24661;53.566;9.910;2023-08-01T05:18:43;39.77;;;17.10;;
38901;SDS011;24661;53.566;9.910;2023-08-01T05:21:08;36.07;;;16.47;;
38901;SDS011;24661;53.566;9.910;2023-08-01T05:23:34;33.13;;;15.80;;
38901;SDS011;24661;53.566;9.910;2023-08-01T05:25:59;34.23;;;16.10;;
38901;SDS011;24661;53.566;9.910;2023-08-01T05:28:25;27.70;;;15.00;;
38901;SDS011;24661;53.566;9.910;2023-08-01T05:30:50;30.63;;;16.33;;
38901;SDS011;24661;53.566;9.910;2023-08-01T05:33:16;34.93;;;16.63;;
38901;SDS011;24661;53.566;9.910;2023-08-01T05:35:41;25.93;;;14.77;;
38901;SDS011;24661;53.566;9.910;2023-08-01T05:38:07;29.93;;;15.43;;
38901;SDS011;24661;53.566;9.910;2023-08-01T05:40:32;30.33;;;16.33;;
38901;SDS011;24661;53.566;9.910;2023-08-01T05:42:58;29.00;;;16.00;;
38901;SDS011;24661;53.566;9.910;2023-08-01T05:45:24;26.33;;;13.93;;
38901;SDS011;24661;53.566;9.910;2023-08-01T05:47:49;32.80;;;15.40;;
38901;SDS011;24661;53.566;9.910;2023-08-01T05:50:16;26.40;;;14.40;;
38901;SDS011;24661;53.566;9.910;2023-08-01T05:52:41;27.50;;;13.47;;
38901;SDS011;24661;53.566;9.910;2023-08-01T05:55:07;23.10;;;12.27;;
38901;SDS011;24661;53.566;9.910;2023-08-01T05:57:33;26.90;;;13.00;;
38901;SDS011;24661;53.566;9.910;2023-08-01T05:59:59;30.50;;;14.53;;
38901;SDS011;24661;53.566;9.910;2023-08-01T06:02:25;21.63;;;14.50;;
38901;SDS011;24661;53.566;9.910;2023-08-01T06:04:50;23.47;;;12.30;;
38901;SDS011;24661;53.566;9.910;2023-08-01T06:07:16;20.47;;;11.90;;
38901;SDS011;24661;53.566;9.910;2023-08-01T06:09:47;23.43;;;12.63;;
38901;SDS011;24661;53.566;9.910;2023-08-01T06:12:15;18.43;;;12.37;;
38901;SDS011;24661;53.566;9.910;2023-08-01T06:14:41;18.13;;;11.17;;
38901;SDS011;24661;53.566;9.910;2023-08-01T06:17:07;24.00;;;11.90;;
38901;SDS011;24661;53.566;9.910;2023-08-01T06:19:32;14.37;;;10.57;;
38901;SDS011;24661;53.566;9.910;2023-08-01T06:21:58;14.53;;;9.67;;
38901;SDS011;24661;53.566;9.910;2023-08-01T06:24:23;17.77;;;9.57;;
38901;SDS011;24661;53.566;9.910;2023-08-01T06:26:49;16.43;;;9.33;;
38901;SDS011;24661;53.566;9.910;2023-08-01T06:29:14;11.77;;;8.43;;
38901;SDS011;24661;53.566;9.910;2023-08-01T06:31:40;15.80;;;8.57;;
38901;SDS011;24661;53.566;9.910;2023-08-01T06:34:05;14.63;;;8.77;;
38901;SDS011;24661;53.566;9.910;2023-08-01T06:36:31;12.97;;;8.33;;
38901;SDS011;24661;53.566;9.910;2023-08-01T06:38:57;12.73;;;7.53;;
38901;SDS011;24661;53.566;9.910;2023-08-01T06:41:23;11.63;;;7.63;;
38901;SDS011;24661;53.566;9.910;2023-08-01T06:43:48;10.73;;;7.00;;
38901;SDS011;24661;53.566;9.910;2023-08-01T06:46:15;11.57;;;6.70;;
38901;SDS011;24661;53.566;9.910;2023-08-01T06:48:41;10.90;;;5.83;;
38901;SDS011;24661;53.566;9.910;2023-08-01T06:51:06;8.57;;;5.70;;
38901;SDS011;24661;53.566;9.910;2023-08-01T06:53:32;12.87;;;6.83;;
38901;SDS011;24661;53.566;9.910;2023-08-01T06:55:57;8.23;;;5.63;;
38901;SDS011;24661;53.566;9.910;2023-08-01T06:58:23;7.53;;;5.27;;
38901;SDS011;24661;53.566;9.910;2023-08-01T07:00:48;8.43;;;4.30;;
38901;SDS011;24661;53.566;9.910;2023-08-01T07:03:14;7.60;;;4.43;;
38901;SDS011;24661;53.566;9.910;2023-08-01T07:05:39;7.90;;;4.70;;
38901;SDS011;24661;53.566;9.910;2023-08-01T07:08:05;9.57;;;4.70;;
38901;SDS011;24661;53.566;9.910;2023-08-01T07:10:33;12.63;;;4.97;;
38901;SDS011;24661;53.566;9.910;2023-08-01T07:12:59;6.80;;;4.03;;
38901;SDS011;24661;53.566;9.910;2023-08-01T07:15:28;7.57;;;4.10;;
38901;SDS011;24661;53.566;9.910;2023-08-01T07:17:54;5.83;;;3.70;;
38901;SDS011;24661;53.566;9.910;2023-08-01T07:20:19;9.90;;;3.97;;
38901;SDS011;24661;53.566;9.910;2023-08-01T07:22:45;6.97;;;3.87;;
38901;SDS011;24661;53.566;9.910;2023-08-01T07:25:11;4.70;;;3.47;;
38901;SDS011;24661;53.566;9.910;2023-08-01T07:27:36;13.67;;;4.07;;
38901;SDS011;24661;53.566;9.910;2023-08-01T07:30:03;10.10;;;3.90;;
38901;SDS011;24661;53.566;9.910;2023-08-01T07:32:29;4.23;;;3.47;;
38901;SDS011;24661;53.566;9.910;2023-08-01T07:34:55;7.33;;;3.60;;
38901;SDS011;24661;53.566;9.910;2023-08-01T07:37:20;12.07;;;4.07;;
38901;SDS011;24661;53.566;9.910;2023-08-01T07:39:49;5.20;;;3.50;;
38901;SDS011;24661;53.566;9.910;2023-08-01T07:42:15;12.77;;;3.83;;
38901;SDS011;24661;53.566;9.910;2023-08-01T07:44:40;6.13;;;3.80;;
38901;SDS011;24661;53.566;9.910;2023-08-01T07:47:06;7.83;;;3.70;;
38901;SDS011;24661;53.566;9.910;2023-08-01T07:49:31;5.17;;;3.53;;
38901;SDS011;24661;53.566;9.910;2023-08-01T07:51:57;8.97;;;4.10;;
38901;SDS011;24661;53.566;9.910;2023-08-01T07:54:23;9.30;;;4.50;;
38901;SDS011;24661;53.566;9.910;2023-08-01T07:56:49;8.13;;;3.17;;
38901;SDS011;24661;53.566;9.910;2023-08-01T07:59:15;8.00;;;4.17;;
38901;SDS011;24661;53.566;9.910;2023-08-01T08:01:41;9.17;;;4.40;;
38901;SDS011;24661;53.566;9.910;2023-08-01T08:04:06;8.20;;;4.43;;
38901;SDS011;24661;53.566;9.910;2023-08-01T08:06:32;6.27;;;3.90;;
38901;SDS011;24661;53.566;9.910;2023-08-01T08:08:58;8.00;;;3.90;;
38901;SDS011;24661;53.566;9.910;2023-08-01T08:11:23;11.90;;;4.37;;
38901;SDS011;24661;53.566;9.910;2023-08-01T08:13:49;9.37;;;4.00;;
38901;SDS011;24661;53.566;9.910;2023-08-01T08:16:15;8.33;;;3.33;;
38901;SDS011;24661;53.566;9.910;2023-08-01T08:18:41;9.13;;;3.60;;
38901;SDS011;24661;53.566;9.910;2023-08-01T08:21:07;9.53;;;4.30;;
38901;SDS011;24661;53.566;9.910;2023-08-01T08:23:32;12.17;;;4.03;;
38901;SDS011;24661;53.566;9.910;2023-08-01T08:25:58;10.00;;;4.60;;
38901;SDS011;24661;53.566;9.910;2023-08-01T08:28:30;7.97;;;4.17;;
38901;SDS011;24661;53.566;9.910;2023-08-01T08:30:57;6.63;;;4.40;;
38901;SDS011;24661;53.566;9.910;2023-08-01T08:33:23;11.27;;;4.30;;
38901;SDS011;24661;53.566;9.910;2023-08-01T08:35:49;9.40;;;3.93;;
38901;SDS011;24661;53.566;9.910;2023-08-01T08:38:16;9.77;;;4.80;;
38901;SDS011;24661;53.566;9.910;2023-08-01T08:40:43;12.27;;;4.53;;
38901;SDS011;24661;53.566;9.910;2023-08-01T08:43:17;8.23;;;4.00;;
38901;SDS011;24661;53.566;9.910;2023-08-01T08:45:43;20.93;;;4.93;;
38901;SDS011;24661;53.566;9.910;2023-08-01T08:48:12;9.60;;;4.70;;
38901;SDS011;24661;53.566;9.910;2023-08-01T08:50:42;8.53;;;4.40;;
38901;SDS011;24661;53.566;9.910;2023-08-01T08:53:09;6.33;;;3.90;;
38901;SDS011;24661;53.566;9.910;2023-08-01T08:55:37;10.20;;;4.00;;
38901;SDS011;24661;53.566;9.910;2023-08-01T08:58:05;11.43;;;5.00;;
38901;SDS011;24661;53.566;9.910;2023-08-01T09:00:32;10.30;;;5.20;;
38901;SDS011;24661;53.566;9.910;2023-08-01T09:02:58;7.73;;;4.43;;
38901;SDS011;24661;53.566;9.910;2023-08-01T09:05:24;11.63;;;4.37;;
38901;SDS011;24661;53.566;9.910;2023-08-01T09:07:55;7.17;;;4.30;;
38901;SDS011;24661;53.566;9.910;2023-08-01T09:10:22;10.97;;;4.57;;
38901;SDS011;24661;53.566;9.910;2023-08-01T09:12:48;7.63;;;4.60;;
38901;SDS011;24661;53.566;9.910;2023-08-01T09:15:14;6.27;;;4.17;;
38901;SDS011;24661;53.566;9.910;2023-08-01T09:18:14;4.93;;;3.47;;
38901;SDS011;24661;53.566;9.910;2023-08-01T09:20:41;3.87;;;3.07;;
38901;SDS011;24661;53.566;9.910;2023-08-01T09:23:08;5.00;;;2.97;;
38901;SDS011;24661;53.566;9.910;2023-08-01T09:25:35;4.27;;;3.43;;
38901;SDS011;24661;53.566;9.910;2023-08-01T09:28:00;6.13;;;2.50;;
38901;SDS011;24661;53.566;9.910;2023-08-01T09:30:26;5.93;;;3.23;;
38901;SDS011;24661;53.566;9.910;2023-08-01T09:32:53;5.27;;;3.50;;
38901;SDS011;24661;53.566;9.910;2023-08-01T09:35:20;5.80;;;2.90;;
38901;SDS011;24661;53.566;9.910;2023-08-01T09:37:46;4.67;;;3.07;;
38901;SDS011;24661;53.566;9.910;2023-08-01T09:40:13;7.87;;;2.80;;
38901;SDS011;24661;53.566;9.910;2023-08-01T09:42:43;4.43;;;2.47;;
38901;SDS011;24661;53.566;9.910;2023-08-01T09:45:16;3.03;;;2.70;;
38901;SDS011;24661;53.566;9.910;2023-08-01T09:47:43;6.47;;;2.50;;
38901;SDS011;24661;53.566;9.910;2023-08-01T09:50:11;4.03;;;2.67;;
38901;SDS011;24661;53.566;9.910;2023-08-01T09:52:45;4.17;;;2.40;;
38901;SDS011;24661;53.566;9.910;2023-08-01T09:55:17;4.27;;;2.43;;
38901;SDS011;24661;53.566;9.910;2023-08-01T09:57:51;3.07;;;2.23;;
38901;SDS011;24661;53.566;9.910;2023-08-01T10:00:21;7.17;;;2.57;;
38901;SDS011;24661;53.566;9.910;2023-08-01T10:02:47;3.27;;;2.27;;
38901;SDS011;24661;53.566;9.910;2023-08-01T10:05:15;3.83;;;3.20;;
38901;SDS011;24661;53.566;9.910;2023-08-01T10:07:43;4.17;;;2.07;;
38901;SDS011;24661;53.566;9.910;2023-08-01T10:10:09;8.00;;;3.03;;
38901;SDS011;24661;53.566;9.910;2023-08-01T10:12:36;4.13;;;2.47;;
38901;SDS011;24661;53.566;9.910;2023-08-01T10:15:03;4.97;;;2.03;;
38901;SDS011;24661;53.566;9.910;2023-08-01T10:17:29;5.03;;;2.37;;
38901;SDS011;24661;53.566;9.910;2023-08-01T10:19:56;2.30;;;1.83;;
38901;SDS011;24661;53.566;9.910;2023-08-01T10:22:25;3.67;;;2.37;;
38901;SDS011;24661;53.566;9.910;2023-08-01T10:24:51;6.87;;;2.40;;
38901;SDS011;24661;53.566;9.910;2023-08-01T10:27:18;5.27;;;2.27;;
38901;SDS011;24661;53.566;9.910;2023-08-01T10:29:45;3.70;;;2.23;;
38901;SDS011;24661;53.566;9.910;2023-08-01T10:32:32;3.67;;;1.77;;
38901;SDS011;24661;53.566;9.910;2023-08-01T10:34:58;5.43;;;2.20;;
38901;SDS011;24661;53.566;9.910;2023-08-01T10:37:24;2.30;;;1.80;;
38901;SDS011;24661;53.566;9.910;2023-08-01T10:39:57;5.23;;;1.93;;
38901;SDS011;24661;53.566;9.910;2023-08-01T10:42:24;3.20;;;1.97;;
38901;SDS011;24661;53.566;9.910;2023-08-01T10:44:50;4.27;;;1.63;;
38901;SDS011;24661;53.566;9.910;2023-08-01T10:47:24;3.70;;;1.90;;
38901;SDS011;24661;53.566;9.910;2023-08-01T10:49:51;2.97;;;1.60;;
38901;SDS011;24661;53.566;9.910;2023-08-01T10:52:19;5.70;;;2.00;;
38901;SDS011;24661;53.566;9.910;2023-08-01T10:54:55;3.70;;;1.60;;
38901;SDS011;24661;53.566;9.910;2023-08-01T10:57:24;3.33;;;1.97;;
38901;SDS011;24661;53.566;9.910;2023-08-01T10:59:51;5.53;;;1.70;;
38901;SDS011;24661;53.566;9.910;2023-08-01T11:02:23;1.83;;;0.77;;
38901;SDS011;24661;53.566;9.910;2023-08-01T11:05:00;1.33;;;0.93;;
38901;SDS011;24661;53.566;9.910;2023-08-01T11:07:27;6.20;;;1.10;;
38901;SDS011;24661;53.566;9.910;2023-08-01T11:10:03;3.63;;;1.33;;
38901;SDS011;24661;53.566;9.910;2023-08-01T11:12:37;9.60;;;1.40;;
38901;SDS011;24661;53.566;9.910;2023-08-01T11:15:04;41.03;;;3.37;;
38901;SDS011;24661;53.566;9.910;2023-08-01T11:17:33;13.27;;;2.33;;
38901;SDS011;24661;53.566;9.910;2023-08-01T11:20:05;5.40;;;1.70;;
38901;SDS011;24661;53.566;9.910;2023-08-01T11:22:33;12.43;;;1.93;;
38901;SDS011;24661;53.566;9.910;2023-08-01T11:24:59;8.60;;;2.63;;
38901;SDS011;24661;53.566;9.910;2023-08-01T11:27:25;3.63;;;1.87;;
38901;SDS011;24661;53.566;9.910;2023-08-01T11:29:51;4.80;;;1.90;;
38901;SDS011;24661;53.566;9.910;2023-08-01T11:32:18;4.13;;;2.00;;
38901;SDS011;24661;53.566;9.910;2023-08-01T11:34:45;3.60;;;2.00;;
38901;SDS011;24661;53.566;9.910;2023-08-01T11:37:11;3.50;;;1.93;;
38901;SDS011;24661;53.566;9.910;2023-08-01T11:39:38;7.47;;;2.00;;
38901;SDS011;24661;53.566;9.910;2023-08-01T11:42:04;2.60;;;1.97;;
38901;SDS011;24661;53.566;9.910;2023-08-01T11:44:30;5.90;;;2.13;;
38901;SDS011;24661;53.566;9.910;2023-08-01T11:46:56;3.87;;;1.93;;
38901;SDS011;24661;53.566;9.910;2023-08-01T11:49:22;5.47;;;1.97;;
38901;SDS011;24661;53.566;9.910;2023-08-01T11:51:48;7.47;;;2.30;;
38901;SDS011;24661;53.566;9.910;2023-08-01T11:54:14;3.03;;;1.93;;
38901;SDS011;24661;53.566;9.910;2023-08-01T11:56:42;3.07;;;1.60;;
38901;SDS011;24661;53.566;9.910;2023-08-01T11:59:12;1.80;;;1.40;;
38901;SDS011;24661;53.566;9.910;2023-08-01T12:01:43;3.63;;;1.60;;
38901;SDS011;24661;53.566;9.910;2023-08-01T12:04:10;5.27;;;1.20;;
38901;SDS011;24661;53.566;9.910;2023-08-01T12:06:36;3.83;;;1.10;;
38901;SDS011;24661;53.566;9.910;2023-08-01T12:09:11;2.27;;;1.40;;
38901;SDS011;24661;53.566;9.910;2023-08-01T12:11:38;1.10;;;0.97;;
38901;SDS011;24661;53.566;9.910;2023-08-01T12:14:09;3.00;;;1.33;;
38901;SDS011;24661;53.566;9.910;2023-08-01T12:16:37;2.37;;;1.20;;
38901;SDS011;24661;53.566;9.910;2023-08-01T12:19:03;1.43;;;1.20;;
38901;SDS011;24661;53.566;9.910;2023-08-01T12:21:30;2.63;;;1.43;;
38901;SDS011;24661;53.566;9.910;2023-08-01T12:23:57;2.03;;;1.40;;
38901;SDS011;24661;53.566;9.910;2023-08-01T12:26:23;3.33;;;1.50;;
38901;SDS011;24661;53.566;9.910;2023-08-01T12:28:48;1.67;;;1.30;;
38901;SDS011;24661;53.566;9.910;2023-08-01T12:31:19;3.80;;;1.43;;
38901;SDS011;24661;53.566;9.910;2023-08-01T12:33:46;1.30;;;1.20;;
38901;SDS011;24661;53.566;9.910;2023-08-01T12:36:12;5.70;;;1.70;;
38901;SDS011;24661;53.566;9.910;2023-08-01T12:38:39;3.70;;;1.57;;
38901;SDS011;24661;53.566;9.910;2023-08-01T12:41:04;2.23;;;1.57;;
38901;SDS011;24661;53.566;9.910;2023-08-01T12:43:30;3.80;;;1.80;;
38901;SDS011;24661;53.566;9.910;2023-08-01T12:45:56;2.10;;;1.40;;
38901;SDS011;24661;53.566;9.910;2023-08-01T12:48:23;5.13;;;1.30;;
38901;SDS011;24661;53.566;9.910;2023-08-01T12:50:49;2.07;;;1.33;;
38901;SDS011;24661;53.566;9.910;2023-08-01T12:53:15;3.53;;;1.40;;
38901;SDS011;24661;53.566;9.910;2023-08-01T12:55:44;1.60;;;1.27;;
38901;SDS011;24661;53.566;9.910;2023-08-01T12:58:11;3.43;;;1.50;;
38901;SDS011;24661;53.566;9.910;2023-08-01T13:00:37;3.27;;;2.03;;
38901;SDS011;24661;53.566;9.910;2023-08-01T13:03:03;3.03;;;1.60;;
38901;SDS011;24661;53.566;9.910;2023-08-01T13:05:30;3.77;;;1.63;;
38901;SDS011;24661;53.566;9.910;2023-08-01T13:07:56;3.13;;;1.50;;
38901;SDS011;24661;53.566;9.910;2023-08-01T13:10:21;4.67;;;1.70;;
38901;SDS011;24661;53.566;9.910;2023-08-01T13:12:47;6.03;;;1.50;;
38901;SDS011;24661;53.566;9.910;2023-08-01T13:15:12;4.00;;;1.40;;
38901;SDS011;24661;53.566;9.910;2023-08-01T13:17:38;2.17;;;1.80;;
38901;SDS011;24661;53.566;9.910;2023-08-01T13:20:04;4.57;;;1.60;;
38901;SDS011;24661;53.566;9.910;2023-08-01T13:22:31;3.90;;;1.60;;
38901;SDS011;24661;53.566;9.910;2023-08-01T13:24:56;4.07;;;2.03;;
38901;SDS011;24661;53.566;9.910;2023-08-01T13:27:22;4.23;;;1.80;;
38901;SDS011;24661;53.566;9.910;2023-08-01T13:29:48;1.87;;;1.50;;
38901;SDS011;24661;53.566;9.910;2023-08-01T13:32:16;2.73;;;2.07;;
38901;SDS011;24661;53.566;9.910;2023-08-01T13:34:42;3.27;;;1.83;;
38901;SDS011;24661;53.566;9.910;2023-08-01T13:37:08;3.00;;;1.80;;
38901;SDS011;24661;53.566;9.910;2023-08-01T13:39:34;3.10;;;2.33;;
38901;SDS011;24661;53.566;9.910;2023-08-01T13:42:00;2.70;;;2.10;;
38901;SDS011;24661;53.566;9.910;2023-08-01T13:44:25;2.47;;;2.00;;
38901;SDS011;24661;53.566;9.910;2023-08-01T13:46:51;3.97;;;2.40;;
38901;SDS011;24661;53.566;9.910;2023-08-01T13:49:17;4.57;;;2.20;;
38901;SDS011;24661;53.566;9.910;2023-08-01T13:51:42;2.20;;;1.57;;
38901;SDS011;24661;53.566;9.910;2023-08-01T13:54:08;3.00;;;1.73;;
38901;SDS011;24661;53.566;9.910;2023-08-01T13:56:35;3.67;;;1.40;;
38901;SDS011;24661;53.566;9.910;2023-08-01T13:59:00;1.93;;;1.30;;
38901;SDS011;24661;53.566;9.910;2023-08-01T14:01:26;2.33;;;1.60;;
38901;SDS011;24661;53.566;9.910;2023-08-01T14:03:51;3.13;;;1.60;;
38901;SDS011;24661;53.566;9.910;2023-08-01T14:06:18;2.50;;;1.43;;
38901;SDS011;24661;53.566;9.910;2023-08-01T14:08:43;4.33;;;1.60;;
38901;SDS011;24661;53.566;9.910;2023-08-01T14:11:09;0.83;;;0.77;;
38901;SDS011;24661;53.566;9.910;2023-08-01T14:13:35;2.83;;;1.20;;
38901;SDS011;24661;53.566;9.910;2023-08-01T14:16:01;1.67;;;0.83;;
38901;SDS011;24661;53.566;9.910;2023-08-01T14:18:27;0.83;;;0.83;;
38901;SDS011;24661;53.566;9.910;2023-08-01T14:20:53;3.40;;;1.20;;
38901;SDS011;24661;53.566;9.910;2023-08-01T14:23:19;0.93;;;0.90;;
38901;SDS011;24661;53.566;9.910;2023-08-01T14:25:45;2.37;;;0.87;;
38901;SDS011;24661;53.566;9.910;2023-08-01T14:28:11;1.63;;;1.10;;
38901;SDS011;24661;53.566;9.910;2023-08-01T14:30:37;2.57;;;0.97;;
38901;SDS011;24661;53.566;9.910;2023-08-01T14:33:03;3.67;;;1.10;;
38901;SDS011;24661;53.566;9.910;2023-08-01T14:35:30;1.43;;;0.80;;